sensor_id;sensor_type;location;lat;lon;timestamp;temperature;humidity
16392;DHT22;8305;-33.882;151.134;2023-07-08T00:00:56;14.60;99.90
16392;DHT22;8305;-33.882;151.134;2023-07-08T00:03:27;14.70;99.90
16392;DHT22;8305;-33.882;151.134;2023-07-08T00:05:58;14.80;99.90
16392;DHT22;8305;-33.882;151.134;2023-07-08T00:08:32;14.80;99.90
16392;DHT22;8305;-33.882;151.134;2023-07-08T00:11:07;14.90;99.90
16392;DHT22;8305;-33.882;151.134;2023-07-08T00:13:38;15.00;99.90
16392;DHT22;8305;-33.882;151.134;2023-07-08T00:16:11;15.00;99.90
16392;DHT22;8305;-33.882;151.134;2023-07-08T00:18:42;15.10;99.90
16392;DHT22;8305;-33.882;151.134;2023-07-08T00:21:13;15.10;99.90
16392;DHT22;8305;-33.882;151.134;2023-07-08T00:23:48;15.20;99.90
16392;DHT22;8305;-33.882;151.134;2023-07-08T00:26:21;15.10;99.90
16392;DHT22;8305;-33.882;151.134;2023-07-08T00:28:53;15.30;99.90
16392;DHT22;8305;-33.882;151.134;2023-07-08T00:31:25;15.40;99.90
16392;DHT22;8305;-33.882;151.134;2023-07-08T00:33:59;15.50;99.90
16392;DHT22;8305;-33.882;151.134;2023-07-08T00:36:31;15.50;99.90
16392;DHT22;8305;-33.882;151.134;2023-07-08T00:39:07;15.60;99.90
16392;DHT22;8305;-33.882;151.134;2023-07-08T00:41:40;15.60;99.90
16392;DHT22;8305;-33.882;151.134;2023-07-08T00:44:13;15.60;99.90
16392;DHT22;8305;-33.882;151.134;2023-07-08T00:46:55;15.70;99.90
16392;DHT22;8305;-33.882;151.134;2023-07-08T00:49:35;15.80;99.90
16392;DHT22;8305;-33.882;151.134;2023-07-08T00:52:25;16.00;99.90
16392;DHT22;8305;-33.882;151.134;2023-07-08T00:54:59;16.10;99.90
16392;DHT22;8305;-33.882;151.134;2023-07-08T00:57:35;16.20;99.90
16392;DHT22;8305;-33.882;151.134;2023-07-08T01:00:11;16.30;99.90
16392;DHT22;8305;-33.882;151.134;2023-07-08T01:02:47;16.40;99.90
16392;DHT22;8305;-33.882;151.134;2023-07-08T01:05:21;16.50;99.90
16392;DHT22;8305;-33.882;151.134;2023-07-08T01:07:55;16.60;99.90
16392;DHT22;8305;-33.882;151.134;2023-07-08T01:10:32;16.70;99.90
16392;DHT22;8305;-33.882;151.134;2023-07-08T01:13:07;16.70;99.90
16392;DHT22;8305;-33.882;151.134;2023-07-08T01:15:41;16.70;99.90
16392;DHT22;8305;-33.882;151.134;2023-07-08T01:18:15;16.80;99.90
16392;DHT22;8305;-33.882;151.134;2023-07-08T01:20:49;16.80;99.90
16392;DHT22;8305;-33.882;151.134;2023-07-08T01:23:25;16.90;99.90
16392;DHT22;8305;-33.882;151.134;2023-07-08T01:25:56;17.00;99.90
16392;DHT22;8305;-33.882;151.134;2023-07-08T01:28:28;17.00;99.90
16392;DHT22;8305;-33.882;151.134;2023-07-08T01:30:59;17.10;99.90
16392;DHT22;8305;-33.882;151.134;2023-07-08T01:33:31;17.20;99.90
16392;DHT22;8305;-33.882;151.134;2023-07-08T01:36:02;17.30;99.90
16392;DHT22;8305;-33.882;151.134;2023-07-08T01:38:35;17.50;99.90
16392;DHT22;8305;-33.882;151.134;2023-07-08T01:41:12;17.50;99.90
16392;DHT22;8305;-33.882;151.134;2023-07-08T01:43:43;17.70;99.90
16392;DHT22;8305;-33.882;151.134;2023-07-08T01:46:17;17.70;99.90
16392;DHT22;8305;-33.882;151.134;2023-07-08T01:48:50;17.80;99.90
16392;DHT22;8305;-33.882;151.134;2023-07-08T01:51:23;17.90;99.90
16392;DHT22;8305;-33.882;151.134;2023-07-08T01:53:56;18.00;99.90
16392;DHT22;8305;-33.882;151.134;2023-07-08T01:56:28;18.00;99.90
16392;DHT22;8305;-33.882;151.134;2023-07-08T01:58:59;18.00;99.90
16392;DHT22;8305;-33.882;151.134;2023-07-08T02:01:30;18.00;99.90
16392;DHT22;8305;-33.882;151.134;2023-07-08T02:04:01;18.00;99.90
16392;DHT22;8305;-33.882;151.134;2023-07-08T02:06:32;18.10;99.90
16392;DHT22;8305;-33.882;151.134;2023-07-08T02:09:05;18.20;99.90
16392;DHT22;8305;-33.882;151.134;2023-07-08T02:11:37;18.30;99.90
16392;DHT22;8305;-33.882;151.134;2023-07-08T02:14:08;18.50;99.90
16392;DHT22;8305;-33.882;151.134;2023-07-08T02:16:39;18.60;99.90
16392;DHT22;8305;-33.882;151.134;2023-07-08T02:19:10;18.70;99.90
16392;DHT22;8305;-33.882;151.134;2023-07-08T02:21:41;18.80;99.90
16392;DHT22;8305;-33.882;151.134;2023-07-08T02:24:14;18.90;99.90
16392;DHT22;8305;-33.882;151.134;2023-07-08T02:26:46;18.80;99.90
16392;DHT22;8305;-33.882;151.134;2023-07-08T02:29:17;18.90;99.90
16392;DHT22;8305;-33.882;151.134;2023-07-08T02:31:48;18.90;99.90
16392;DHT22;8305;-33.882;151.134;2023-07-08T02:34:19;18.90;99.90
16392;DHT22;8305;-33.882;151.134;2023-07-08T02:36:51;19.00;99.90
16392;DHT22;8305;-33.882;151.134;2023-07-08T02:39:24;19.00;99.90
16392;DHT22;8305;-33.882;151.134;2023-07-08T02:41:55;19.10;99.90
16392;DHT22;8305;-33.882;151.134;2023-07-08T02:44:26;19.10;99.90
16392;DHT22;8305;-33.882;151.134;2023-07-08T02:46:57;19.10;99.90
16392;DHT22;8305;-33.882;151.134;2023-07-08T02:49:29;19.10;99.90
16392;DHT22;8305;-33.882;151.134;2023-07-08T02:52:00;19.10;99.90
16392;DHT22;8305;-33.882;151.134;2023-07-08T02:54:33;19.20;99.90
16392;DHT22;8305;-33.882;151.134;2023-07-08T02:57:05;19.30;99.90
16392;DHT22;8305;-33.882;151.134;2023-07-08T02:59:36;19.30;99.90
16392;DHT22;8305;-33.882;151.134;2023-07-08T03:02:07;19.30;99.90
16392;DHT22;8305;-33.882;151.134;2023-07-08T03:04:38;19.30;99.90
16392;DHT22;8305;-33.882;151.134;2023-07-08T03:07:10;19.30;99.90
16392;DHT22;8305;-33.882;151.134;2023-07-08T03:09:43;19.30;99.90
16392;DHT22;8305;-33.882;151.134;2023-07-08T03:12:14;19.40;99.90
16392;DHT22;8305;-33.882;151.134;2023-07-08T03:14:46;19.50;99.90
16392;DHT22;8305;-33.882;151.134;2023-07-08T03:17:17;19.50;99.90
16392;DHT22;8305;-33.882;151.134;2023-07-08T03:19:48;19.50;99.90
16392;DHT22;8305;-33.882;151.134;2023-07-08T03:22:19;19.50;99.90
16392;DHT22;8305;-33.882;151.134;2023-07-08T03:24:52;19.40;99.90
16392;DHT22;8305;-33.882;151.134;2023-07-08T03:27:23;19.50;99.90
16392;DHT22;8305;-33.882;151.134;2023-07-08T03:29:54;19.50;99.90
16392;DHT22;8305;-33.882;151.134;2023-07-08T03:32:26;19.50;99.90
16392;DHT22;8305;-33.882;151.134;2023-07-08T03:34:57;19.50;99.90
16392;DHT22;8305;-33.882;151.134;2023-07-08T03:37:29;19.60;99.90
16392;DHT22;8305;-33.882;151.134;2023-07-08T03:40:02;19.60;99.90
16392;DHT22;8305;-33.882;151.134;2023-07-08T03:42:34;19.60;99.90
16392;DHT22;8305;-33.882;151.134;2023-07-08T03:45:06;19.80;99.90
16392;DHT22;8305;-33.882;151.134;2023-07-08T03:47:37;19.80;99.90
16392;DHT22;8305;-33.882;151.134;2023-07-08T03:50:13;19.80;99.90
16392;DHT22;8305;-33.882;151.134;2023-07-08T03:52:48;19.90;99.90
16392;DHT22;8305;-33.882;151.134;2023-07-08T03:55:22;19.90;99.90
16392;DHT22;8305;-33.882;151.134;2023-07-08T03:57:53;19.90;99.90
16392;DHT22;8305;-33.882;151.134;2023-07-08T04:00:24;19.80;99.90
16392;DHT22;8305;-33.882;151.134;2023-07-08T04:02:55;19.90;99.90
16392;DHT22;8305;-33.882;151.134;2023-07-08T04:05:26;19.80;99.90
16392;DHT22;8305;-33.882;151.134;2023-07-08T04:07:58;19.80;99.90
16392;DHT22;8305;-33.882;151.134;2023-07-08T04:10:31;19.80;99.90
16392;DHT22;8305;-33.882;151.134;2023-07-08T04:13:02;19.90;99.90
16392;DHT22;8305;-33.882;151.134;2023-07-08T04:15:33;19.90;99.90
16392;DHT22;8305;-33.882;151.134;2023-07-08T04:18:04;19.90;99.90
16392;DHT22;8305;-33.882;151.134;2023-07-08T04:20:35;20.00;99.90
16392;DHT22;8305;-33.882;151.134;2023-07-08T04:23:06;20.00;99.90
16392;DHT22;8305;-33.882;151.134;2023-07-08T04:25:39;20.00;99.90
16392;DHT22;8305;-33.882;151.134;2023-07-08T04:28:10;20.00;99.90
16392;DHT22;8305;-33.882;151.134;2023-07-08T04:30:42;20.00;99.90
16392;DHT22;8305;-33.882;151.134;2023-07-08T04:33:14;20.00;99.90
16392;DHT22;8305;-33.882;151.134;2023-07-08T04:35:46;19.90;99.90
16392;DHT22;8305;-33.882;151.134;2023-07-08T04:38:19;19.90;99.90
16392;DHT22;8305;-33.882;151.134;2023-07-08T04:40:53;19.90;99.90
16392;DHT22;8305;-33.882;151.134;2023-07-08T04:43:25;19.90;99.90
16392;DHT22;8305;-33.882;151.134;2023-07-08T04:45:58;19.90;99.90
16392;DHT22;8305;-33.882;151.134;2023-07-08T04:48:29;19.90;99.90
16392;DHT22;8305;-33.882;151.134;2023-07-08T04:51:00;19.90;99.90
16392;DHT22;8305;-33.882;151.134;2023-07-08T04:53:32;19.90;99.90
16392;DHT22;8305;-33.882;151.134;2023-07-08T04:56:05;19.90;99.90
16392;DHT22;8305;-33.882;151.134;2023-07-08T04:58:36;19.80;99.90
16392;DHT22;8305;-33.882;151.134;2023-07-08T05:01:07;19.90;99.90
16392;DHT22;8305;-33.882;151.134;2023-07-08T05:03:38;19.90;99.90
16392;DHT22;8305;-33.882;151.134;2023-07-08T05:06:09;19.80;99.90
16392;DHT22;8305;-33.882;151.134;2023-07-08T05:08:40;19.90;99.90
16392;DHT22;8305;-33.882;151.134;2023-07-08T05:11:13;19.80;99.90
16392;DHT22;8305;-33.882;151.134;2023-07-08T05:13:44;19.80;99.90
16392;DHT22;8305;-33.882;151.134;2023-07-08T05:16:16;19.60;99.90
16392;DHT22;8305;-33.882;151.134;2023-07-08T05:18:47;19.60;99.90
16392;DHT22;8305;-33.882;151.134;2023-07-08T05:21:19;19.50;99.90
16392;DHT22;8305;-33.882;151.134;2023-07-08T05:23:51;19.50;99.90
16392;DHT22;8305;-33.882;151.134;2023-07-08T05:26:24;19.50;99.90
16392;DHT22;8305;-33.882;151.134;2023-07-08T05:28:55;19.40;99.90
16392;DHT22;8305;-33.882;151.134;2023-07-08T05:31:26;19.30;99.90
16392;DHT22;8305;-33.882;151.134;2023-07-08T05:33:57;19.20;99.90
16392;DHT22;8305;-33.882;151.134;2023-07-08T05:36:28;19.10;99.90
16392;DHT22;8305;-33.882;151.134;2023-07-08T05:38:59;19.10;99.90
16392;DHT22;8305;-33.882;151.134;2023-07-08T05:41:32;19.10;99.90
16392;DHT22;8305;-33.882;151.134;2023-07-08T05:44:04;19.00;99.90
16392;DHT22;8305;-33.882;151.134;2023-07-08T05:46:35;19.00;99.90
16392;DHT22;8305;-33.882;151.134;2023-07-08T05:49:06;18.90;99.90
16392;DHT22;8305;-33.882;151.134;2023-07-08T05:51:37;18.80;99.90
16392;DHT22;8305;-33.882;151.134;2023-07-08T05:54:08;18.80;99.90
16392;DHT22;8305;-33.882;151.134;2023-07-08T05:56:41;18.90;99.90
16392;DHT22;8305;-33.882;151.134;2023-07-08T05:59:12;18.90;99.90
16392;DHT22;8305;-33.882;151.134;2023-07-08T06:01:43;18.90;99.90
16392;DHT22;8305;-33.882;151.134;2023-07-08T06:04:14;18.90;99.90
16392;DHT22;8305;-33.882;151.134;2023-07-08T06:06:46;18.90;99.90
16392;DHT22;8305;-33.882;151.134;2023-07-08T06:09:17;18.90;99.90
16392;DHT22;8305;-33.882;151.134;2023-07-08T06:11:50;18.80;99.90
16392;DHT22;8305;-33.882;151.134;2023-07-08T06:14:21;18.80;99.90
16392;DHT22;8305;-33.882;151.134;2023-07-08T06:16:52;18.70;99.90
16392;DHT22;8305;-33.882;151.134;2023-07-08T06:19:24;18.70;99.90
16392;DHT22;8305;-33.882;151.134;2023-07-08T06:21:55;18.60;99.90
16392;DHT22;8305;-33.882;151.134;2023-07-08T06:24:26;18.60;99.90
16392;DHT22;8305;-33.882;151.134;2023-07-08T06:26:59;18.60;99.90
16392;DHT22;8305;-33.882;151.134;2023-07-08T06:29:30;18.50;99.90
16392;DHT22;8305;-33.882;151.134;2023-07-08T06:32:02;18.40;99.90
16392;DHT22;8305;-33.882;151.134;2023-07-08T06:34:33;18.40;99.90
16392;DHT22;8305;-33.882;151.134;2023-07-08T06:37:04;18.30;99.90
16392;DHT22;8305;-33.882;151.134;2023-07-08T06:39:35;18.30;99.90
16392;DHT22;8305;-33.882;151.134;2023-07-08T06:42:09;18.20;99.90
16392;DHT22;8305;-33.882;151.134;2023-07-08T06:44:40;18.10;99.90
16392;DHT22;8305;-33.882;151.134;2023-07-08T06:47:18;18.10;99.90
16392;DHT22;8305;-33.882;151.134;2023-07-08T06:49:50;18.00;99.90
16392;DHT22;8305;-33.882;151.134;2023-07-08T06:52:21;17.90;99.90
16392;DHT22;8305;-33.882;151.134;2023-07-08T06:54:52;17.90;99.90
16392;DHT22;8305;-33.882;151.134;2023-07-08T06:57:25;17.80;99.90
16392;DHT22;8305;-33.882;151.134;2023-07-08T06:59:56;17.60;99.90
16392;DHT22;8305;-33.882;151.134;2023-07-08T07:02:27;17.60;99.90
16392;DHT22;8305;-33.882;151.134;2023-07-08T07:04:59;17.50;99.90
16392;DHT22;8305;-33.882;151.134;2023-07-08T07:07:30;17.40;99.90
16392;DHT22;8305;-33.882;151.134;2023-07-08T07:10:02;17.30;99.90
16392;DHT22;8305;-33.882;151.134;2023-07-08T07:12:35;17.20;99.90
16392;DHT22;8305;-33.882;151.134;2023-07-08T07:15:07;17.10;99.90
16392;DHT22;8305;-33.882;151.134;2023-07-08T07:17:38;17.10;99.90
16392;DHT22;8305;-33.882;151.134;2023-07-08T07:20:10;17.00;99.90
16392;DHT22;8305;-33.882;151.134;2023-07-08T07:22:41;16.90;99.90
16392;DHT22;8305;-33.882;151.134;2023-07-08T07:25:13;16.90;99.90
16392;DHT22;8305;-33.882;151.134;2023-07-08T07:27:46;16.80;99.90
16392;DHT22;8305;-33.882;151.134;2023-07-08T07:30:17;16.80;99.90
16392;DHT22;8305;-33.882;151.134;2023-07-08T07:32:48;16.70;99.90
16392;DHT22;8305;-33.882;151.134;2023-07-08T07:35:19;16.70;99.90
16392;DHT22;8305;-33.882;151.134;2023-07-08T07:37:50;16.70;99.90
16392;DHT22;8305;-33.882;151.134;2023-07-08T07:40:21;16.60;99.90
16392;DHT22;8305;-33.882;151.134;2023-07-08T07:42:54;16.50;99.90
16392;DHT22;8305;-33.882;151.134;2023-07-08T07:45:25;16.50;99.90
16392;DHT22;8305;-33.882;151.134;2023-07-08T07:47:56;16.50;99.90
16392;DHT22;8305;-33.882;151.134;2023-07-08T07:50:28;16.40;99.90
16392;DHT22;8305;-33.882;151.134;2023-07-08T07:52:59;16.30;99.90
16392;DHT22;8305;-33.882;151.134;2023-07-08T07:55:30;16.30;99.90
16392;DHT22;8305;-33.882;151.134;2023-07-08T07:58:03;16.30;99.90
16392;DHT22;8305;-33.882;151.134;2023-07-08T08:00:35;16.20;99.90
16392;DHT22;8305;-33.882;151.134;2023-07-08T08:03:07;16.20;99.90
16392;DHT22;8305;-33.882;151.134;2023-07-08T08:05:38;16.10;99.90
16392;DHT22;8305;-33.882;151.134;2023-07-08T08:08:09;16.10;99.90
16392;DHT22;8305;-33.882;151.134;2023-07-08T08:10:40;16.00;99.90
16392;DHT22;8305;-33.882;151.134;2023-07-08T08:13:14;16.00;99.90
16392;DHT22;8305;-33.882;151.134;2023-07-08T08:15:45;16.00;99.90
16392;DHT22;8305;-33.882;151.134;2023-07-08T08:18:16;15.90;99.90
16392;DHT22;8305;-33.882;151.134;2023-07-08T08:20:47;15.90;99.90
16392;DHT22;8305;-33.882;151.134;2023-07-08T08:23:20;15.80;99.90
16392;DHT22;8305;-33.882;151.134;2023-07-08T08:25:52;15.90;99.90
16392;DHT22;8305;-33.882;151.134;2023-07-08T08:28:25;15.80;99.90
16392;DHT22;8305;-33.882;151.134;2023-07-08T08:30:56;15.80;99.90
16392;DHT22;8305;-33.882;151.134;2023-07-08T08:33:27;15.70;99.90
16392;DHT22;8305;-33.882;151.134;2023-07-08T08:35:58;15.70;99.90
16392;DHT22;8305;-33.882;151.134;2023-07-08T08:38:29;15.60;99.90
16392;DHT22;8305;-33.882;151.134;2023-07-08T08:41:04;15.60;99.90
16392;DHT22;8305;-33.882;151.134;2023-07-08T08:43:44;15.50;99.90
16392;DHT22;8305;-33.882;151.134;2023-07-08T08:46:22;15.50;99.90
16392;DHT22;8305;-33.882;151.134;2023-07-08T08:48:59;15.50;99.90
16392;DHT22;8305;-33.882;151.134;2023-07-08T08:51:33;15.40;99.90
16392;DHT22;8305;-33.882;151.134;2023-07-08T08:54:04;15.40;99.90
16392;DHT22;8305;-33.882;151.134;2023-07-08T08:56:39;15.40;99.90
16392;DHT22;8305;-33.882;151.134;2023-07-08T08:59:22;15.30;99.90
16392;DHT22;8305;-33.882;151.134;2023-07-08T09:01:54;15.30;99.90
16392;DHT22;8305;-33.882;151.134;2023-07-08T09:04:29;15.30;99.90
16392;DHT22;8305;-33.882;151.134;2023-07-08T09:09:40;15.30;99.90
16392;DHT22;8305;-33.882;151.134;2023-07-08T09:12:16;15.30;99.90
16392;DHT22;8305;-33.882;151.134;2023-07-08T09:14:51;15.20;99.90
16392;DHT22;8305;-33.882;151.134;2023-07-08T09:17:24;15.20;99.90
16392;DHT22;8305;-33.882;151.134;2023-07-08T09:20:04;15.20;99.90
16392;DHT22;8305;-33.882;151.134;2023-07-08T09:22:40;15.20;99.90
16392;DHT22;8305;-33.882;151.134;2023-07-08T09:25:30;15.20;99.90
16392;DHT22;8305;-33.882;151.134;2023-07-08T09:28:03;15.20;99.90
16392;DHT22;8305;-33.882;151.134;2023-07-08T09:30:36;15.20;99.90
16392;DHT22;8305;-33.882;151.134;2023-07-08T09:33:08;15.20;99.90
16392;DHT22;8305;-33.882;151.134;2023-07-08T09:35:41;15.20;99.90
16392;DHT22;8305;-33.882;151.134;2023-07-08T09:38:16;15.20;99.90
16392;DHT22;8305;-33.882;151.134;2023-07-08T09:40:49;15.30;99.90
16392;DHT22;8305;-33.882;151.134;2023-07-08T09:43:26;15.20;99.90
16392;DHT22;8305;-33.882;151.134;2023-07-08T09:46:01;15.30;99.90
16392;DHT22;8305;-33.882;151.134;2023-07-08T09:48:35;15.30;99.90
16392;DHT22;8305;-33.882;151.134;2023-07-08T09:51:07;15.30;99.90
16392;DHT22;8305;-33.882;151.134;2023-07-08T09:53:39;15.30;99.90
16392;DHT22;8305;-33.882;151.134;2023-07-08T09:56:10;15.30;99.90
16392;DHT22;8305;-33.882;151.134;2023-07-08T09:58:42;15.30;99.90
16392;DHT22;8305;-33.882;151.134;2023-07-08T10:01:21;15.30;99.90
16392;DHT22;8305;-33.882;151.134;2023-07-08T10:03:58;15.30;99.90
16392;DHT22;8305;-33.882;151.134;2023-07-08T10:06:33;15.30;99.90
16392;DHT22;8305;-33.882;151.134;2023-07-08T10:09:08;15.40;99.90
16392;DHT22;8305;-33.882;151.134;2023-07-08T10:11:44;15.40;99.90
16392;DHT22;8305;-33.882;151.134;2023-07-08T10:14:24;15.30;99.90
16392;DHT22;8305;-33.882;151.134;2023-07-08T10:16:58;15.50;99.90
16392;DHT22;8305;-33.882;151.134;2023-07-08T10:19:29;15.50;99.90
16392;DHT22;8305;-33.882;151.134;2023-07-08T10:22:15;15.50;99.90
16392;DHT22;8305;-33.882;151.134;2023-07-08T10:25:09;15.50;99.90
16392;DHT22;8305;-33.882;151.134;2023-07-08T10:27:47;15.60;99.90
16392;DHT22;8305;-33.882;151.134;2023-07-08T10:30:22;15.50;99.90
16392;DHT22;8305;-33.882;151.134;2023-07-08T10:33:15;15.50;99.90
16392;DHT22;8305;-33.882;151.134;2023-07-08T10:36:11;15.50;99.90
16392;DHT22;8305;-33.882;151.134;2023-07-08T10:38:55;15.40;99.90
16392;DHT22;8305;-33.882;151.134;2023-07-08T10:41:34;15.30;99.90
16392;DHT22;8305;-33.882;151.134;2023-07-08T10:44:15;15.30;99.90
16392;DHT22;8305;-33.882;151.134;2023-07-08T10:47:07;15.40;99.90
16392;DHT22;8305;-33.882;151.134;2023-07-08T10:49:51;15.30;99.90
16392;DHT22;8305;-33.882;151.134;2023-07-08T10:52:37;15.30;99.90
16392;DHT22;8305;-33.882;151.134;2023-07-08T10:55:28;15.30;99.90
16392;DHT22;8305;-33.882;151.134;2023-07-08T10:58:18;15.20;99.90
16392;DHT22;8305;-33.882;151.134;2023-07-08T11:00:55;15.20;99.90
16392;DHT22;8305;-33.882;151.134;2023-07-08T11:03:48;15.10;99.90
16392;DHT22;8305;-33.882;151.134;2023-07-08T11:06:34;15.00;99.90
16392;DHT22;8305;-33.882;151.134;2023-07-08T11:09:18;15.10;99.90
16392;DHT22;8305;-33.882;151.134;2023-07-08T11:11:56;15.10;99.90
16392;DHT22;8305;-33.882;151.134;2023-07-08T11:14:46;15.00;99.90
16392;DHT22;8305;-33.882;151.134;2023-07-08T11:17:22;15.00;99.90
16392;DHT22;8305;-33.882;151.134;2023-07-08T11:19:59;15.00;99.90
16392;DHT22;8305;-33.882;151.134;2023-07-08T11:22:35;15.00;99.90
16392;DHT22;8305;-33.882;151.134;2023-07-08T11:25:17;15.00;99.90
16392;DHT22;8305;-33.882;151.134;2023-07-08T11:27:50;14.90;99.90
16392;DHT22;8305;-33.882;151.134;2023-07-08T11:30:24;14.90;99.90
16392;DHT22;8305;-33.882;151.134;2023-07-08T11:33:00;14.90;99.90
16392;DHT22;8305;-33.882;151.134;2023-07-08T11:35:40;14.90;99.90
16392;DHT22;8305;-33.882;151.134;2023-07-08T11:38:15;14.90;99.90
16392;DHT22;8305;-33.882;151.134;2023-07-08T11:40:55;14.90;99.90
16392;DHT22;8305;-33.882;151.134;2023-07-08T11:43:27;14.90;99.90
16392;DHT22;8305;-33.882;151.134;2023-07-08T11:46:05;14.90;99.90
16392;DHT22;8305;-33.882;151.134;2023-07-08T11:48:42;15.00;99.90
16392;DHT22;8305;-33.882;151.134;2023-07-08T11:51:18;15.00;99.90
16392;DHT22;8305;-33.882;151.134;2023-07-08T11:53:59;15.00;99.90
16392;DHT22;8305;-33.882;151.134;2023-07-08T11:56:49;15.00;99.90
16392;DHT22;8305;-33.882;151.134;2023-07-08T11:59:30;15.00;99.90
16392;DHT22;8305;-33.882;151.134;2023-07-08T12:02:09;14.90;99.90
16392;DHT22;8305;-33.882;151.134;2023-07-08T12:04:57;15.00;99.90
16392;DHT22;8305;-33.882;151.134;2023-07-08T12:07:33;14.90;99.90
16392;DHT22;8305;-33.882;151.134;2023-07-08T12:10:13;14.80;99.90
16392;DHT22;8305;-33.882;151.134;2023-07-08T12:12:47;14.80;99.90
16392;DHT22;8305;-33.882;151.134;2023-07-08T12:15:21;14.80;99.90
16392;DHT22;8305;-33.882;151.134;2023-07-08T12:17:55;14.70;99.90
16392;DHT22;8305;-33.882;151.134;2023-07-08T12:20:33;14.80;99.90
16392;DHT22;8305;-33.882;151.134;2023-07-08T12:23:11;14.80;99.90
16392;DHT22;8305;-33.882;151.134;2023-07-08T12:25:44;14.70;99.90
16392;DHT22;8305;-33.882;151.134;2023-07-08T12:28:16;14.70;99.90
16392;DHT22;8305;-33.882;151.134;2023-07-08T12:30:49;14.70;99.90
16392;DHT22;8305;-33.882;151.134;2023-07-08T12:33:27;14.60;99.90
16392;DHT22;8305;-33.882;151.134;2023-07-08T12:36:00;14.60;99.90
16392;DHT22;8305;-33.882;151.134;2023-07-08T12:38:33;14.60;99.90
16392;DHT22;8305;-33.882;151.134;2023-07-08T12:41:11;14.60;99.90
16392;DHT22;8305;-33.882;151.134;2023-07-08T12:43:43;14.50;99.90
16392;DHT22;8305;-33.882;151.134;2023-07-08T12:46:15;14.50;99.90
16392;DHT22;8305;-33.882;151.134;2023-07-08T12:48:46;14.50;99.90
16392;DHT22;8305;-33.882;151.134;2023-07-08T12:51:20;14.50;99.90
16392;DHT22;8305;-33.882;151.134;2023-07-08T12:53:51;14.50;99.90
16392;DHT22;8305;-33.882;151.134;2023-07-08T12:56:25;14.50;99.90
16392;DHT22;8305;-33.882;151.134;2023-07-08T12:58:57;14.50;99.90
16392;DHT22;8305;-33.882;151.134;2023-07-08T13:01:31;14.50;99.90
16392;DHT22;8305;-33.882;151.134;2023-07-08T13:04:04;14.50;99.90
16392;DHT22;8305;-33.882;151.134;2023-07-08T13:06:36;14.40;99.90
16392;DHT22;8305;-33.882;151.134;2023-07-08T13:09:14;14.40;99.90
16392;DHT22;8305;-33.882;151.134;2023-07-08T13:11:50;14.40;99.90
16392;DHT22;8305;-33.882;151.134;2023-07-08T13:14:24;14.40;99.90
16392;DHT22;8305;-33.882;151.134;2023-07-08T13:16:56;14.40;99.90
16392;DHT22;8305;-33.882;151.134;2023-07-08T13:19:27;14.40;99.90
16392;DHT22;8305;-33.882;151.134;2023-07-08T13:21:58;14.40;99.90
16392;DHT22;8305;-33.882;151.134;2023-07-08T13:24:32;14.40;99.90
16392;DHT22;8305;-33.882;151.134;2023-07-08T13:27:13;14.40;99.90
16392;DHT22;8305;-33.882;151.134;2023-07-08T13:29:45;14.40;99.90
16392;DHT22;8305;-33.882;151.134;2023-07-08T13:32:16;14.40;99.90
16392;DHT22;8305;-33.882;151.134;2023-07-08T13:34:49;14.50;99.90
16392;DHT22;8305;-33.882;151.134;2023-07-08T13:37:20;14.40;99.90
16392;DHT22;8305;-33.882;151.134;2023-07-08T13:39:54;14.40;99.90
16392;DHT22;8305;-33.882;151.134;2023-07-08T13:42:27;14.40;99.90
16392;DHT22;8305;-33.882;151.134;2023-07-08T13:44:58;14.40;99.90
16392;DHT22;8305;-33.882;151.134;2023-07-08T13:47:30;14.40;99.90
16392;DHT22;8305;-33.882;151.134;2023-07-08T13:50:07;14.40;99.90
16392;DHT22;8305;-33.882;151.134;2023-07-08T13:52:44;14.40;99.90
16392;DHT22;8305;-33.882;151.134;2023-07-08T13:55:18;14.50;99.90
16392;DHT22;8305;-33.882;151.134;2023-07-08T13:57:58;14.50;99.90
16392;DHT22;8305;-33.882;151.134;2023-07-08T14:00:31;14.50;99.90
16392;DHT22;8305;-33.882;151.134;2023-07-08T14:03:02;14.40;99.90
16392;DHT22;8305;-33.882;151.134;2023-07-08T14:05:34;14.40;99.90
16392;DHT22;8305;-33.882;151.134;2023-07-08T14:08:12;14.40;99.90
16392;DHT22;8305;-33.882;151.134;2023-07-08T14:10:44;14.30;99.90
16392;DHT22;8305;-33.882;151.134;2023-07-08T14:13:17;14.30;99.90
16392;DHT22;8305;-33.882;151.134;2023-07-08T14:15:49;14.30;99.90
16392;DHT22;8305;-33.882;151.134;2023-07-08T14:18:20;14.20;99.90
16392;DHT22;8305;-33.882;151.134;2023-07-08T14:20:51;14.20;99.90
16392;DHT22;8305;-33.882;151.134;2023-07-08T14:23:22;14.20;99.90
16392;DHT22;8305;-33.882;151.134;2023-07-08T14:25:53;14.10;99.90
16392;DHT22;8305;-33.882;151.134;2023-07-08T14:28:26;14.00;99.90
16392;DHT22;8305;-33.882;151.134;2023-07-08T14:30:57;14.00;99.90
16392;DHT22;8305;-33.882;151.134;2023-07-08T14:33:29;13.90;99.90
16392;DHT22;8305;-33.882;151.134;2023-07-08T14:36:00;13.80;99.90
16392;DHT22;8305;-33.882;151.134;2023-07-08T14:38:31;13.80;99.90
16392;DHT22;8305;-33.882;151.134;2023-07-08T14:41:02;13.70;99.90
16392;DHT22;8305;-33.882;151.134;2023-07-08T14:43:35;13.70;99.90
16392;DHT22;8305;-33.882;151.134;2023-07-08T14:46:10;13.70;99.90
16392;DHT22;8305;-33.882;151.134;2023-07-08T14:48:41;13.60;99.90
16392;DHT22;8305;-33.882;151.134;2023-07-08T14:51:12;13.60;99.90
16392;DHT22;8305;-33.882;151.134;2023-07-08T14:53:43;13.50;99.90
16392;DHT22;8305;-33.882;151.134;2023-07-08T14:56:17;13.50;99.90
16392;DHT22;8305;-33.882;151.134;2023-07-08T14:58:50;13.40;99.90
16392;DHT22;8305;-33.882;151.134;2023-07-08T15:01:22;13.30;99.90
16392;DHT22;8305;-33.882;151.134;2023-07-08T15:03:57;13.30;99.90
16392;DHT22;8305;-33.882;151.134;2023-07-08T15:06:29;13.30;99.90
16392;DHT22;8305;-33.882;151.134;2023-07-08T15:09:00;13.30;99.90
16392;DHT22;8305;-33.882;151.134;2023-07-08T15:11:31;13.30;99.90
16392;DHT22;8305;-33.882;151.134;2023-07-08T15:14:05;13.30;99.90
16392;DHT22;8305;-33.882;151.134;2023-07-08T15:16:39;13.20;99.90
16392;DHT22;8305;-33.882;151.134;2023-07-08T15:19:11;13.20;99.90
16392;DHT22;8305;-33.882;151.134;2023-07-08T15:21:42;13.20;99.90
16392;DHT22;8305;-33.882;151.134;2023-07-08T15:24:14;13.30;99.90
16392;DHT22;8305;-33.882;151.134;2023-07-08T15:26:46;13.30;99.90
16392;DHT22;8305;-33.882;151.134;2023-07-08T15:29:21;13.30;99.90
16392;DHT22;8305;-33.882;151.134;2023-07-08T15:31:52;13.30;99.90
16392;DHT22;8305;-33.882;151.134;2023-07-08T15:34:24;13.30;99.90
16392;DHT22;8305;-33.882;151.134;2023-07-08T15:36:55;13.30;99.90
16392;DHT22;8305;-33.882;151.134;2023-07-08T15:39:26;13.30;99.90
16392;DHT22;8305;-33.882;151.134;2023-07-08T15:41:57;13.30;99.90
16392;DHT22;8305;-33.882;151.134;2023-07-08T15:44:30;13.30;99.90